createdAt,value
2023-11-13T00:02:26.762Z,5.5
2023-11-13T00:08:20.189Z,5.4
2023-11-13T00:14:11.648Z,5.4
2023-11-13T00:20:04.527Z,5.4
2023-11-13T00:25:56.124Z,5.4
2023-11-13T00:31:47.800Z,5.4
2023-11-13T00:37:40.435Z,5.4
2023-11-13T00:43:36.049Z,5.4
2023-11-13T00:49:27.931Z,5.4
2023-11-13T00:55:20.315Z,5.4
2023-11-13T01:01:11.561Z,5.4
2023-11-13T01:07:04.983Z,5.4
2023-11-13T01:12:57.676Z,5.5
2023-11-13T01:18:48.602Z,5.5
2023-11-13T01:24:40.457Z,5.5
2023-11-13T01:30:35.737Z,5.5
2023-11-13T01:36:27.471Z,5.5
2023-11-13T01:42:19.139Z,5.5
2023-11-13T01:48:12.250Z,5.5
2023-11-13T01:54:03.911Z,5.5
2023-11-13T01:59:55.416Z,5.6
2023-11-13T02:05:47.912Z,5.6
2023-11-13T02:11:39.332Z,5.6
2023-11-13T02:17:31.292Z,5.6
2023-11-13T02:23:08.155Z,5.6
2023-11-13T02:28:59.792Z,5.6
2023-11-13T02:34:51.675Z,5.7
2023-11-13T02:40:43.345Z,5.7
2023-11-13T02:46:34.529Z,5.7
2023-11-13T02:52:26.687Z,5.7
2023-11-13T02:58:19.279Z,5.7
2023-11-13T03:04:11.738Z,5.7
2023-11-13T03:10:03.341Z,5.6
2023-11-13T03:15:39.468Z,5.6
2023-11-13T03:21:31.094Z,5.5
2023-11-13T03:27:07.500Z,5.4
2023-11-13T03:33:00.002Z,5.4
2023-11-13T03:38:36.302Z,5.4
2023-11-13T03:44:28.223Z,5.4
2023-11-13T03:50:20.694Z,5.4
2023-11-13T03:56:12.658Z,5.4
2023-11-13T04:02:05.025Z,5.4
2023-11-13T04:07:57.960Z,5.4
2023-11-13T04:13:48.469Z,5.3
2023-11-13T04:19:24.994Z,5.3
2023-11-13T04:25:17.338Z,5.3
2023-11-13T04:30:57.483Z,5.3
2023-11-13T04:36:34.454Z,5.3
2023-11-13T04:42:26.469Z,5.2
2023-11-13T04:48:18.616Z,5.1
2023-11-13T04:54:10.086Z,5.1
2023-11-13T05:00:05.825Z,5.1
2023-11-13T05:05:58.502Z,5.1
2023-11-13T05:11:50.400Z,5.1
2023-11-13T05:17:44.841Z,5.1
2023-11-13T05:23:37.302Z,5.1
2023-11-13T05:29:29.384Z,5.1
2023-11-13T05:35:22.116Z,5.1
2023-11-13T05:41:12.934Z,5.1
2023-11-13T05:47:05.408Z,5.1
2023-11-13T05:53:00.403Z,5.1
2023-11-13T05:58:52.850Z,5
2023-11-13T06:04:45.490Z,5.2
2023-11-13T06:10:40.503Z,6.3
2023-11-13T06:16:31.888Z,8.4
2023-11-13T06:22:07.840Z,11.5
2023-11-13T06:28:03.429Z,15.1
2023-11-13T06:33:57.587Z,18.9
2023-11-13T06:39:34.288Z,23.1
2023-11-13T06:45:27.170Z,27.9
2023-11-13T06:51:19.795Z,33
2023-11-13T06:57:11.537Z,37.5
2023-11-13T07:03:04.706Z,41.4
2023-11-13T07:08:56.533Z,42.3
2023-11-13T07:14:35.962Z,43.9
2023-11-13T07:20:29.136Z,44.8
2023-11-13T07:26:20.496Z,45.8
2023-11-13T07:32:13.205Z,47.9
2023-11-13T07:38:06.362Z,49.4
2023-11-13T07:43:58.005Z,49.3
2023-11-13T07:49:51.395Z,51.6
2023-11-13T07:56:01.172Z,57.2
2023-11-13T08:01:54.527Z,53.3
2023-11-13T08:07:54.660Z,47.1
2023-11-13T08:13:47.584Z,50.8
2023-11-13T08:19:38.984Z,57.4
2023-11-13T08:25:32.077Z,55.8
2023-11-13T08:31:27.500Z,50.4
2023-11-13T08:37:20.207Z,54
2023-11-13T08:43:10.236Z,58.8
2023-11-13T08:49:19.311Z,55.1
2023-11-13T08:55:11.224Z,54.3
2023-11-13T09:01:03.420Z,54.9
2023-11-13T09:06:42.929Z,55.1
2023-11-13T09:12:37.436Z,53.1
2023-11-13T09:18:14.327Z,48.9
2023-11-13T09:24:07.010Z,56.4
2023-11-13T09:29:58.702Z,60.6
2023-11-13T09:35:50.073Z,54.7
2023-11-13T09:41:43.161Z,56.1
2023-11-13T09:47:48.214Z,56.8
2023-11-13T09:53:48.783Z,57
2023-11-13T09:59:41.644Z,57.7
2023-11-13T10:05:38.171Z,57.9
2023-11-13T10:11:30.445Z,57.9
2023-11-13T10:17:07.730Z,57.9
2023-11-13T10:23:03.434Z,58.1
2023-11-13T10:28:54.826Z,58
2023-11-13T10:34:36.566Z,58.3
2023-11-13T10:40:36.570Z,58.3
2023-11-13T10:46:31.028Z,58.6
2023-11-13T10:52:24.762Z,58.7
2023-11-13T10:58:01.626Z,58.5
2023-11-13T11:03:57.103Z,58
2023-11-13T11:09:54.061Z,57.6
2023-11-13T11:15:52.177Z,57.1
2023-11-13T11:21:48.395Z,56.2
2023-11-13T11:27:41.669Z,54.4
2023-11-13T11:33:29.846Z,55.6
2023-11-13T11:39:21.626Z,62.4
2023-11-13T11:45:01.365Z,59.2
2023-11-13T11:51:05.405Z,53.8
2023-11-13T11:57:00.914Z,55.3
2023-11-13T12:02:55.631Z,60.5
2023-11-13T12:08:48.677Z,58.4
2023-11-13T12:14:24.273Z,51.5
2023-11-13T12:20:30.864Z,51.3
2023-11-13T12:26:22.838Z,54.9
2023-11-13T12:32:14.705Z,56.8
2023-11-13T12:37:52.077Z,57.7
2023-11-13T12:43:43.439Z,57.9
2023-11-13T12:49:43.077Z,51.7
2023-11-13T12:55:34.835Z,50.1
2023-11-13T13:01:26.871Z,50.3
2023-11-13T13:07:24.285Z,50.3
2023-11-13T13:13:20.152Z,50.7
2023-11-13T13:19:25.897Z,50.8
2023-11-13T13:25:18.592Z,50.3
2023-11-13T13:31:12.857Z,48.8
2023-11-13T13:37:05.822Z,47.3
2023-11-13T13:42:56.759Z,45.2
2023-11-13T13:48:49.630Z,43.4
2023-11-13T13:54:44.765Z,41
2023-11-13T14:00:51.112Z,38.7
2023-11-13T14:06:45.043Z,36.2
2023-11-13T14:12:55.088Z,34.3
2023-11-13T14:18:51.245Z,32.1
2023-11-13T14:24:46.467Z,29.9
2023-11-13T14:36:01.817Z,25.9
2023-11-13T14:41:39.948Z,23.9
2023-11-13T14:47:33.739Z,22
2023-11-13T14:53:31.567Z,20.4
2023-11-13T14:59:25.790Z,18.8
2023-11-13T15:05:19.360Z,17.5
2023-11-13T15:11:10.389Z,16.4
2023-11-13T15:17:02.937Z,15.4
2023-11-13T15:23:35.448Z,14.5
2023-11-13T15:29:22.389Z,13.7
2023-11-13T15:35:22.957Z,13.1
2023-11-13T15:41:15.299Z,12.4
2023-11-13T15:46:52.096Z,11.9
2023-11-13T15:52:29.338Z,11.4
2023-11-13T15:58:21.917Z,10.9
2023-11-13T16:04:17.502Z,10.6
2023-11-13T16:10:10.915Z,10.3
2023-11-13T16:16:04.006Z,10
2023-11-13T16:21:44.319Z,9.8
2023-11-13T16:27:36.139Z,9.6
2023-11-13T16:33:28.698Z,9.3
2023-11-13T16:39:03.251Z,9.2
2023-11-13T16:44:55.752Z,9
2023-11-13T16:50:50.350Z,8.8
2023-11-13T16:56:45.748Z,8.7
2023-11-13T17:02:38.435Z,8.6
2023-11-13T17:08:33.118Z,8.5
2023-11-13T17:14:09.085Z,8.4
2023-11-13T17:20:02.256Z,8.4
2023-11-13T17:25:41.931Z,8.3
2023-11-13T17:31:36.848Z,8.2
2023-11-13T17:37:31.663Z,8.1
2023-11-13T17:43:07.874Z,7.9
2023-11-13T17:48:44.544Z,7.6
2023-11-13T17:54:36.276Z,7.4
2023-11-13T18:00:27.638Z,7.2
2023-11-13T18:06:27.019Z,7
2023-11-13T18:12:03.526Z,6.8
2023-11-13T18:17:55.177Z,6.7
2023-11-13T18:23:45.831Z,6.5
2023-11-13T18:29:17.707Z,6.3
2023-11-13T18:35:10.022Z,6.1
2023-11-13T18:41:05.617Z,5.9
2023-11-13T18:46:57.585Z,5.6
2023-11-13T18:52:49.428Z,5.4
2023-11-13T18:58:40.241Z,5.1
2023-11-13T19:04:19.989Z,4.9
2023-11-13T19:10:17.899Z,4.8
2023-11-13T19:16:09.393Z,4.6
2023-11-13T19:22:02.042Z,4.5
2023-11-13T19:27:38.879Z,4.4
2023-11-13T19:32:51.689Z,4.3
2023-11-13T19:38:36.253Z,4.1
2023-11-13T19:43:57.050Z,4
2023-11-13T19:50:00.449Z,4.1
2023-11-13T19:55:47.228Z,3.9
2023-11-13T20:01:09.493Z,3.8
2023-11-13T20:06:34.532Z,3.6
2023-11-13T20:12:11.816Z,3.6
2023-11-13T20:17:48.770Z,3.6
2023-11-13T20:23:21.889Z,3.6
2023-11-13T20:29:16.028Z,3.5
2023-11-13T20:35:02.311Z,3.4
2023-11-13T20:40:38.390Z,3.4
2023-11-13T20:46:14.723Z,3.3
2023-11-13T20:51:52.835Z,3.3
2023-11-13T20:57:28.163Z,3.1
2023-11-13T21:02:51.763Z,3.1
2023-11-13T21:08:41.612Z,3
2023-11-13T21:14:33.705Z,3.1
2023-11-13T21:20:10.655Z,2.9
2023-11-13T21:25:47.761Z,2.9
2023-11-13T21:31:24.505Z,2.9
2023-11-13T21:37:01.678Z,2.8
2023-11-13T21:42:53.635Z,2.7
2023-11-13T21:48:30.221Z,2.6
2023-11-13T21:54:06.609Z,2.6
2023-11-13T21:59:44.764Z,2.6
2023-11-13T22:05:07.202Z,2.6
2023-11-13T22:10:58.810Z,2.5
2023-11-13T22:16:35.360Z,2.4
2023-11-13T22:22:13.100Z,2.4
2023-11-13T22:27:49.160Z,2.3
2023-11-13T22:33:25.873Z,2.1
2023-11-13T22:39:02.234Z,1.9
2023-11-13T22:44:38.738Z,1.8
2023-11-13T22:50:16.184Z,1.7
2023-11-13T22:55:52.807Z,1.6
2023-11-13T23:01:29.418Z,1.5
2023-11-13T23:06:51.325Z,1.5
2023-11-13T23:12:27.552Z,1.5
2023-11-13T23:18:04.835Z,1.5
2023-11-13T23:24:05.208Z,1.5
2023-11-13T23:29:41.624Z,1.5
2023-11-13T23:35:18.069Z,1.4
2023-11-13T23:40:55.145Z,1.4
2023-11-13T23:46:31.245Z,1.4
2023-11-13T23:52:07.657Z,1.4
2023-11-13T23:57:44.314Z,1.4
